Portada
METAR-TAF:

METAR-TAF

Aeropuertos :

Charlotte, Míchigan, Estados Unidos

latitud: 42-34-28N, longitud: 084-48-41W, altitud: 271 m

Observación

El informe se hizo hace 34 minutos, a las 19:35 UTC
Viento 5 kt del suroeste
Temperatura 31°C
Humedad 55%
Presión 1024 hPa
Visibilidad: 16.1 km
Escasas nubes a una altura de 4600 ft

METAR: KFPK 191935Z AUTO 23005KT 10SM FEW046 31/21 A3023 RMK AO2

Hora: 16:09 (20:09 UTC)


TAF: falta

Observaciones y pronósticos meteorológicos de más de 4000 aeropuertos (mensajes METAR y TAF).

Los puntos amarillos y rojos representan las estaciones disponibles.

Ponga el ratón en el punto deseado para ver el nombre de la estación.

Haga clic para ver las observaciones y los pronósticos meteorológicos.

Para cambiar el mapa : haga clic en los botones verdes con una cruz de color negro para hacer un zoom, en el botón verde con un guión para alejar o en las flechas verdes para mapas adyacentes.


METAR-TAF: